Nearby METAR Reports

 

KBVO - Bartlesville, Oklahoma, USA
Distance from station: WNW 10mi, 16km
Updated: Thu, 17-Jan-2019 9:53am CST
Overcast
Overcast
 Wind from varies
Wind: varies 5 mph , 7 km/h
Temperature: 41°F , 5°C
Wind Chill: 38°F , 3°C
Dew Point: 37°F , 3°C
Humidity: 87%
Barometer: 30.17 inHg , 1021.7 hPa
Clouds: Overcast
Visibility: 10 miles , 16 km
Cloud details: Overcast 800 ft
2019/01/17 15:53 KBVO 171553Z AUTO VRB04KT 10SM OVC008 05/03 A3017 RMK AO2 SLP216 T00500033
KCFV - Coffeyville, Kansas, USA
Distance from station: NNE 31mi, 49km
Updated: Thu, 17-Jan-2019 9:52am CST
Mist, Overcast
Mist, Overcast
 Wind from NW
Wind: NW 8 mph , 13 km/h
Temperature: 37°F , 3°C
Wind Chill: 31°F , -1°C
Dew Point: 36°F , 2°C
Humidity: 93%
Barometer: 30.15 inHg , 1021 hPa
Summary: Mist
Clouds: Overcast
Visibility: 5 miles , 8 km
Cloud details: Overcast 600 ft
2019/01/17 15:52 KCFV 171552Z AUTO 31007KT 5SM BR OVC006 03/02 A3015 RMK AO2 SLP215 T00330022
 
KIDP - Independence, Kansas, USA
Distance from station: N 32mi, 52km
Updated: Thu, 17-Jan-2019 9:55am CST
Overcast
Overcast
 Wind from NW
Wind: NW 9 mph , 15 km/h
Temperature: 37°F , 3°C
Wind Chill: 30°F , -1°C
Dew Point: 36°F , 2°C
Humidity: 93%
Barometer: 30.16 inHg , 1021.3 hPa
Clouds: Overcast
Visibility: 10 miles , 16 km
Cloud details: Overcast 600 ft
2019/01/17 15:55 KIDP 171555Z AUTO 32008KT 10SM OVC006 03/02 A3016 RMK AO2 T00290022
KGCM - Claremore, Oklahoma, USA
Distance from station: SE 35mi, 56km
Updated: Thu, 17-Jan-2019 9:55am CST
Mist, Overcast
Mist, Overcast
 Wind from NNW
Wind: NNW 5 mph , 7 km/h
Temperature: 41°F , 5°C
Wind Chill: 38°F , 3°C
Dew Point: 39°F , 4°C
Humidity: 93%
Barometer: 30.16 inHg , 1021.3 hPa
Summary: Mist
Clouds: Overcast
Visibility: 5 miles , 8 km
Cloud details: Overcast 600 ft
2019/01/17 15:55 KGCM 171555Z AUTO 33004KT 5SM BR OVC006 05/04 A3016 RMK AO2 TSNO
 
KTUL - Tulsa, Oklahoma, USA
Distance from station: S 35mi, 56km
Updated: Thu, 17-Jan-2019 9:53am CST
Overcast
Overcast
 Wind from NNW
Wind: NNW 9 mph , 15 km/h
Temperature: 43°F , 6°C
Wind Chill: 38°F , 3°C
Dew Point: 39°F , 4°C
Humidity: 87%
Barometer: 30.15 inHg , 1021 hPa
Clouds: Overcast
Visibility: 10 miles , 16 km
Cloud details: Overcast 1100 ft
2019/01/17 15:53 KTUL 171553Z 33008KT 10SM OVC011 06/04 A3015 RMK AO2 SLP210 T00610044
KRVS - Tulsa, Oklahoma, USA
Distance from station: S 46mi, 74km
Updated: Thu, 17-Jan-2019 9:53am CST
Overcast
Overcast
 Wind from varies
Wind: varies 6 mph , 9 km/h
Temperature: 45°F , 7°C
Wind Chill: 42°F , 6°C
Dew Point: 41°F , 5°C
Humidity: 87%
Barometer: 30.15 inHg , 1021 hPa
Clouds: Overcast
Visibility: 10 miles , 16 km
Cloud details: Overcast 900 ft
2019/01/17 15:53 KRVS 171553Z VRB05KT 10SM OVC009 07/05 A3015 RMK AO2 SLP217 T00720050
 
KPPF - Parsons, Kansas, USA
Distance from station: NNE 48mi, 76km
Updated: Thu, 17-Jan-2019 10:07am CST
Overcast
Overcast
 Wind from NW
Wind: NW 10 mph , 17 km/h
Temperature: 37°F , 3°C
Wind Chill: 30°F , -1°C
Dew Point: 36°F , 2°C
Humidity: 93%
Barometer: 30.17 inHg , 1021.7 hPa
Clouds: Overcast
Visibility: 7 miles , 11 km
Cloud details: Overcast 500 ft
2019/01/17 16:07 KPPF 171607Z AUTO 31009KT 7SM OVC005 03/02 A3017 RMK AO2 T00280022
KGMJ - Grove, Oklahoma, USA
Distance from station: E 63mi, 101km
Updated: Thu, 17-Jan-2019 9:55am CST
Mist, Overcast
Mist, Overcast
 Wind from NNW
Wind: NNW 6 mph , 9 km/h
Temperature: 43°F , 6°C
Wind Chill: 39°F , 4°C
Dew Point: 43°F , 6°C
Humidity: 100%
Barometer: 30.12 inHg , 1020 hPa
Summary: Mist
Clouds: Overcast
Visibility: 4 miles , 6 km
Cloud details: Overcast 400 ft
2019/01/17 15:55 KGMJ 171555Z AUTO 34005KT 4SM BR OVC004 06/06 A3012 RMK AO2
 
KPNC - Ponca City, Oklahoma, USA
Distance from station: W 69mi, 111km
Updated: Thu, 17-Jan-2019 9:53am CST
Overcast
Overcast
 Wind from NNW
Wind: NNW 9 mph , 15 km/h
Temperature: 37°F , 3°C
Wind Chill: 30°F , -1°C
Dew Point: 34°F , 1°C
Humidity: 87%
Barometer: 30.17 inHg , 1021.7 hPa
Clouds: Overcast
Visibility: 8 miles , 13 km
Cloud details: Overcast 800 ft
2019/01/17 15:53 KPNC 171553Z AUTO 34008KT 8SM OVC008 03/01 A3017 RMK AO2 SLP218 T00330011
KCNU - Chanute, Kansas, USA
Distance from station: NNE 69mi, 112km
Updated: Thu, 17-Jan-2019 9:52am CST
Overcast
Overcast
 Wind from NNW
Wind: NNW 8 mph , 13 km/h
Temperature: 36°F , 2°C
Wind Chill: 30°F , -1°C
Dew Point: 36°F , 2°C
Humidity: 100%
Barometer: 30.13 inHg , 1020.3 hPa
Clouds: Overcast
Visibility: 9 miles , 14 km
Cloud details: Mostly cloudy 500 ft
Overcast 4800 ft
2019/01/17 15:52 KCNU 171552Z AUTO 33007KT 9SM BKN005 OVC048 02/02 A3013 RMK AO2 CIG 004V008 SLP206 T00220022